createdAt,value
2023-01-23T00:01:35.393Z,13.05
2023-01-23T00:04:03.969Z,12.30
2023-01-23T00:06:31.482Z,11.93
2023-01-23T00:08:58.800Z,13.32
2023-01-23T00:11:30.182Z,13.23
2023-01-23T00:13:59.204Z,11.85
2023-01-23T00:18:59.367Z,11.40
2023-01-23T00:21:29.069Z,11.52
2023-01-23T00:23:59.474Z,12.40
2023-01-23T00:26:32.657Z,10.38
2023-01-23T00:28:59.902Z,13.77
2023-01-23T00:31:33.492Z,11.43
2023-01-23T00:34:06.444Z,12.00
2023-01-23T00:36:39.209Z,11.65
2023-01-23T00:39:18.766Z,11.52
2023-01-23T00:41:48.177Z,11.23
2023-01-23T00:44:16.291Z,12.68
2023-01-23T00:46:43.552Z,12.60
2023-01-23T00:49:10.895Z,13.02
2023-01-23T00:51:38.119Z,12.13
2023-01-23T00:54:05.772Z,13.98
2023-01-23T00:56:32.950Z,13.15
2023-01-23T00:59:00.171Z,13.00
2023-01-23T01:01:28.972Z,14.95
2023-01-23T01:03:56.193Z,13.15
2023-01-23T01:06:23.368Z,13.10
2023-01-23T01:08:51.276Z,14.95
2023-01-23T01:11:18.683Z,12.90
2023-01-23T01:13:46.326Z,13.75
2023-01-23T01:16:13.976Z,13.43
2023-01-23T01:18:41.660Z,12.30
2023-01-23T01:21:12.138Z,14.45
2023-01-23T01:23:40.845Z,13.15
2023-01-23T01:26:08.866Z,12.52
2023-01-23T01:28:39.313Z,14.32
2023-01-23T01:31:13.910Z,12.90
2023-01-23T01:33:43.871Z,13.80
2023-01-23T01:36:20.371Z,15.07
2023-01-23T01:38:48.126Z,14.05
2023-01-23T01:41:16.619Z,14.20
2023-01-23T01:43:45.455Z,14.45
2023-01-23T01:46:24.107Z,13.95
2023-01-23T01:49:26.386Z,14.88
2023-01-23T01:52:09.094Z,13.93
2023-01-23T01:54:54.498Z,16.85
2023-01-23T01:57:39.907Z,15.73
2023-01-23T02:00:16.758Z,13.48
2023-01-23T02:03:00.915Z,15.23
2023-01-23T02:05:39.038Z,15.15
2023-01-23T02:08:43.135Z,17.52
2023-01-23T02:11:10.494Z,14.00
2023-01-23T02:13:39.825Z,14.18
2023-01-23T02:16:21.214Z,17.45
2023-01-23T02:18:58.690Z,15.32
2023-01-23T02:21:26.387Z,14.35
2023-01-23T02:24:31.812Z,16.10
2023-01-23T02:26:59.184Z,15.60
2023-01-23T02:29:27.716Z,14.63
2023-01-23T02:31:56.808Z,14.75
2023-01-23T02:34:26.012Z,14.45
2023-01-23T02:36:56.391Z,14.23
2023-01-23T02:39:24.892Z,15.65
2023-01-23T02:41:54.880Z,15.65
2023-01-23T02:44:32.148Z,15.75
2023-01-23T02:47:11.712Z,15.18
2023-01-23T02:49:40.330Z,15.00
2023-01-23T02:52:09.846Z,15.40
2023-01-23T02:54:37.860Z,14.13
2023-01-23T02:57:05.094Z,15.20
2023-01-23T02:59:51.186Z,14.43
2023-01-23T03:02:19.510Z,13.73
2023-01-23T03:04:48.219Z,14.40
2023-01-23T03:07:15.631Z,15.30
2023-01-23T03:09:47.760Z,15.05
2023-01-23T03:12:16.174Z,13.63
2023-01-23T03:14:43.490Z,14.60
2023-01-23T03:17:11.276Z,13.93
2023-01-23T03:19:39.067Z,14.00
2023-01-23T03:22:07.093Z,14.38
2023-01-23T03:24:35.461Z,13.85
2023-01-23T03:27:03.311Z,13.98
2023-01-23T03:29:56.503Z,14.23
2023-01-23T03:32:25.997Z,14.07
2023-01-23T03:34:55.200Z,14.35
2023-01-23T03:37:23.360Z,14.40
2023-01-23T03:40:10.166Z,15.75
2023-01-23T03:42:37.840Z,12.73
2023-01-23T03:45:08.257Z,15.55
2023-01-23T03:47:37.009Z,15.02
2023-01-23T03:50:04.997Z,14.98
2023-01-23T03:52:37.966Z,13.88
2023-01-23T03:55:06.454Z,15.52
2023-01-23T03:57:34.203Z,14.68
2023-01-23T04:00:13.638Z,14.25
2023-01-23T04:02:41.540Z,16.33
2023-01-23T04:05:11.258Z,16.58
2023-01-23T04:07:39.471Z,14.55
2023-01-23T04:10:07.160Z,15.30
2023-01-23T04:12:34.781Z,16.05
2023-01-23T04:15:02.035Z,16.98
2023-01-23T04:17:29.601Z,16.63
2023-01-23T04:19:56.729Z,17.17
2023-01-23T04:22:23.979Z,15.68
2023-01-23T04:24:51.545Z,16.52
2023-01-23T04:27:19.559Z,15.00
2023-01-23T04:29:49.911Z,15.50
2023-01-23T04:32:17.916Z,15.18
2023-01-23T04:34:47.279Z,14.18
2023-01-23T04:37:15.270Z,13.95
2023-01-23T04:39:42.802Z,15.27
2023-01-23T04:42:10.223Z,15.55
2023-01-23T04:44:56.198Z,15.88
2023-01-23T04:47:38.608Z,14.88
2023-01-23T04:50:10.957Z,16.38
2023-01-23T04:52:39.576Z,13.30
2023-01-23T04:55:07.589Z,15.52
2023-01-23T04:57:34.906Z,15.90
2023-01-23T05:00:14.735Z,14.85
2023-01-23T05:02:42.125Z,15.80
2023-01-23T05:05:09.843Z,14.40
2023-01-23T05:07:38.427Z,15.82
2023-01-23T05:10:10.092Z,14.65
2023-01-23T05:12:37.812Z,15.43
2023-01-23T05:15:07.158Z,15.07
2023-01-23T05:17:38.356Z,16.77
2023-01-23T05:20:07.028Z,15.20
2023-01-23T05:22:35.946Z,15.95
2023-01-23T05:25:03.445Z,15.27
2023-01-23T05:27:31.487Z,17.17
2023-01-23T05:29:59.941Z,15.70
2023-01-23T05:32:31.645Z,15.48
2023-01-23T05:35:11.789Z,16.38
2023-01-23T05:37:40.651Z,14.82
2023-01-23T05:40:13.275Z,16.40
2023-01-23T05:43:06.659Z,14.48
2023-01-23T05:45:34.710Z,14.73
2023-01-23T05:48:04.406Z,14.65
2023-01-23T05:50:34.290Z,15.48
2023-01-23T05:53:01.761Z,16.67
2023-01-23T05:55:28.995Z,15.77
2023-01-23T05:57:56.890Z,15.95
2023-01-23T06:00:42.368Z,15.35
2023-01-23T06:03:29.900Z,15.43
2023-01-23T06:06:09.099Z,14.80
2023-01-23T06:08:36.482Z,15.10
2023-01-23T06:11:04.357Z,15.85
2023-01-23T06:13:31.618Z,15.20
2023-01-23T06:15:59.125Z,14.85
2023-01-23T06:18:27.021Z,15.35
2023-01-23T06:21:00.522Z,15.05
2023-01-23T06:23:29.208Z,15.20
2023-01-23T06:26:03.792Z,13.88
2023-01-23T06:28:32.113Z,14.95
2023-01-23T06:31:04.352Z,14.35
2023-01-23T06:33:59.519Z,13.43
2023-01-23T06:36:31.680Z,14.43
2023-01-23T06:38:59.786Z,14.52
2023-01-23T06:41:33.891Z,11.00
2023-01-23T06:44:04.180Z,14.82
2023-01-23T06:46:31.411Z,15.48
2023-01-23T06:48:59.053Z,14.40
2023-01-23T06:51:28.321Z,15.07
2023-01-23T06:53:59.595Z,15.43
2023-01-23T06:56:27.352Z,16.45
2023-01-23T06:58:54.656Z,15.55
2023-01-23T07:01:31.671Z,14.40
2023-01-23T07:04:14.302Z,15.20
2023-01-23T07:09:14.305Z,15.68
2023-01-23T07:11:46.680Z,16.58
2023-01-23T07:14:14.099Z,14.75
2023-01-23T07:16:43.793Z,14.23
2023-01-23T07:19:11.582Z,16.52
2023-01-23T07:21:40.572Z,15.52
2023-01-23T07:24:07.955Z,17.00
2023-01-23T07:26:35.153Z,13.65
2023-01-23T07:29:03.571Z,14.77
2023-01-23T07:31:30.959Z,15.35
2023-01-23T07:33:58.306Z,15.65
2023-01-23T07:36:29.372Z,14.52
2023-01-23T07:38:59.011Z,16.73
2023-01-23T07:41:26.307Z,15.02
2023-01-23T07:43:53.507Z,15.90
2023-01-23T07:46:20.970Z,13.20
2023-01-23T07:48:49.454Z,14.77
2023-01-23T07:51:16.727Z,14.30
2023-01-23T07:53:43.933Z,14.30
2023-01-23T07:56:11.183Z,15.32
2023-01-23T07:58:38.415Z,13.77
2023-01-23T08:01:12.124Z,14.52
2023-01-23T08:03:39.547Z,14.23
2023-01-23T08:06:07.583Z,10.68
2023-01-23T08:08:34.886Z,15.02
2023-01-23T08:11:07.988Z,12.18
2023-01-23T08:13:35.254Z,13.65
2023-01-23T08:16:03.080Z,13.65
2023-01-23T08:18:31.776Z,13.52
2023-01-23T08:21:02.832Z,13.73
2023-01-23T08:23:34.500Z,13.20
2023-01-23T08:26:06.456Z,13.55
2023-01-23T08:28:33.697Z,14.50
2023-01-23T08:31:06.847Z,13.43
2023-01-23T08:33:36.292Z,14.65
2023-01-23T08:36:06.119Z,16.20
2023-01-23T08:38:33.605Z,15.40
2023-01-23T08:41:03.224Z,14.45
2023-01-23T08:43:34.343Z,13.05
2023-01-23T08:46:02.678Z,14.57
2023-01-23T08:48:34.150Z,14.05
2023-01-23T08:51:12.732Z,13.80
2023-01-23T08:53:41.046Z,11.90
2023-01-23T08:56:17.130Z,12.85
2023-01-23T08:58:45.864Z,12.15
2023-01-23T09:01:17.556Z,9.95
2023-01-23T09:03:45.428Z,12.27
2023-01-23T09:06:14.623Z,11.15
2023-01-23T09:08:41.904Z,12.20
2023-01-23T09:11:11.839Z,11.80
2023-01-23T09:13:39.650Z,11.75
2023-01-23T09:16:08.511Z,11.82
2023-01-23T09:18:37.872Z,12.38
2023-01-23T09:21:17.652Z,13.40
2023-01-23T09:23:45.329Z,10.38
2023-01-23T09:26:15.145Z,13.68
2023-01-23T09:28:43.141Z,14.35
2023-01-23T09:31:13.995Z,14.70
2023-01-23T09:33:42.354Z,13.02
2023-01-23T09:36:10.176Z,13.40
2023-01-23T09:38:37.466Z,13.40
2023-01-23T09:41:14.517Z,11.63
2023-01-23T09:44:10.109Z,15.88
2023-01-23T09:47:21.586Z,12.13
2023-01-23T09:50:22.260Z,9.35
2023-01-23T09:53:16.763Z,12.10
2023-01-23T09:56:00.602Z,8.23
2023-01-23T09:59:24.955Z,13.63
2023-01-23T10:01:52.405Z,12.60
2023-01-23T10:04:20.691Z,12.13
2023-01-23T10:07:56.740Z,11.93
2023-01-23T10:10:59.565Z,11.63
2023-01-23T10:14:04.095Z,11.75
2023-01-23T10:17:10.738Z,14.93
2023-01-23T10:20:39.540Z,12.95
2023-01-23T10:24:03.216Z,13.68
2023-01-23T10:26:38.816Z,11.55
2023-01-23T10:29:39.101Z,11.52
2023-01-23T10:32:49.692Z,11.38
2023-01-23T10:35:36.944Z,11.40
2023-01-23T10:38:27.974Z,11.50
2023-01-23T10:41:13.535Z,9.20
2023-01-23T10:43:53.606Z,11.52
2023-01-23T10:46:49.072Z,13.25
2023-01-23T10:49:35.590Z,14.68
2023-01-23T10:52:04.454Z,14.48
2023-01-23T10:57:15.315Z,11.35
2023-01-23T11:00:00.396Z,10.85
2023-01-23T11:02:34.501Z,7.75
2023-01-23T11:05:22.451Z,10.48
2023-01-23T11:07:55.534Z,11.95
2023-01-23T11:10:24.112Z,12.15
2023-01-23T11:12:55.130Z,12.15
2023-01-23T11:15:32.695Z,12.75
2023-01-23T11:18:01.548Z,13.50
2023-01-23T11:23:12.948Z,13.13
2023-01-23T11:25:44.214Z,11.65
2023-01-23T11:28:48.503Z,12.77
2023-01-23T11:31:22.809Z,12.88
2023-01-23T11:34:12.262Z,13.00
2023-01-23T11:37:19.239Z,14.57
2023-01-23T11:40:08.346Z,13.20
2023-01-23T11:42:40.878Z,13.00
2023-01-23T11:46:06.857Z,14.25
2023-01-23T11:49:05.776Z,15.75
2023-01-23T11:51:58.783Z,13.35
2023-01-23T11:54:43.765Z,12.82
2023-01-23T11:57:29.242Z,13.27
2023-01-23T12:00:17.790Z,13.77
2023-01-23T12:03:30.809Z,12.60
2023-01-23T12:06:34.779Z,12.50
2023-01-23T12:09:11.028Z,12.45
2023-01-23T12:12:25.300Z,14.52
2023-01-23T12:15:49.842Z,13.82
2023-01-23T12:19:05.900Z,12.65
2023-01-23T12:22:05.670Z,11.40
2023-01-23T12:25:03.815Z,9.52
2023-01-23T12:27:47.294Z,9.95
2023-01-23T12:30:32.935Z,10.65
2023-01-23T12:33:20.681Z,9.98
2023-01-23T12:36:20.359Z,12.48
2023-01-23T12:40:22.456Z,11.35
2023-01-23T12:43:29.350Z,9.80
2023-01-23T12:46:12.129Z,10.27
2023-01-23T12:48:56.403Z,10.98
2023-01-23T12:51:37.493Z,10.93
2023-01-23T12:56:41.860Z,10.80
2023-01-23T12:59:48.604Z,10.73
2023-01-23T13:02:52.065Z,11.27
2023-01-23T13:05:41.824Z,10.68
2023-01-23T13:08:57.996Z,12.05
2023-01-23T13:12:22.178Z,12.02
2023-01-23T13:15:38.864Z,12.23
2023-01-23T13:18:27.703Z,11.85
2023-01-23T13:21:23.075Z,11.38
2023-01-23T13:24:10.310Z,12.73
2023-01-23T13:29:25.575Z,12.10
2023-01-23T13:32:25.480Z,12.13
2023-01-23T13:34:52.788Z,12.48
2023-01-23T13:37:29.113Z,11.20
2023-01-23T13:40:20.544Z,12.45
2023-01-23T13:42:47.987Z,12.88
2023-01-23T13:45:29.648Z,14.80
2023-01-23T14:20:40.173Z,12.23
2023-01-23T14:23:46.260Z,13.93
2023-01-23T14:26:24.323Z,13.85
2023-01-23T14:29:07.122Z,12.63
2023-01-23T14:31:36.966Z,12.63
2023-01-23T14:34:17.992Z,12.90
2023-01-23T14:37:00.807Z,13.85
2023-01-23T14:39:32.591Z,12.45
2023-01-23T14:42:05.405Z,12.35
2023-01-23T14:44:47.038Z,11.57
2023-01-23T14:47:34.259Z,12.98
2023-01-23T14:50:08.863Z,13.02
2023-01-23T14:52:36.331Z,13.88
2023-01-23T14:55:08.009Z,12.63
2023-01-23T14:57:36.494Z,12.35
2023-01-23T15:00:04.943Z,13.57
2023-01-23T15:02:36.151Z,14.75
2023-01-23T15:05:34.362Z,13.60
2023-01-23T15:08:05.912Z,13.20
2023-01-23T15:10:47.348Z,13.38
2023-01-23T15:13:26.746Z,13.43
2023-01-23T15:15:59.561Z,11.98
2023-01-23T15:18:31.094Z,14.05
2023-01-23T15:21:07.780Z,13.15
2023-01-23T15:23:38.659Z,13.25
2023-01-23T15:26:14.847Z,10.80
2023-01-23T15:29:08.887Z,12.27
2023-01-23T15:31:40.404Z,16.52
2023-01-23T15:34:16.639Z,14.57
2023-01-23T15:37:25.785Z,14.82
2023-01-23T15:40:02.423Z,12.65
2023-01-23T15:42:35.245Z,14.05
2023-01-23T15:45:03.742Z,12.57
2023-01-23T15:47:32.735Z,15.05
2023-01-23T15:50:03.106Z,11.13
2023-01-23T15:52:53.842Z,11.93
2023-01-23T15:55:26.006Z,12.05
2023-01-23T15:57:54.555Z,12.93
2023-01-23T16:00:29.943Z,11.23
2023-01-23T16:02:59.420Z,11.40
2023-01-23T16:05:36.809Z,10.73
2023-01-23T16:08:09.170Z,11.70
2023-01-23T16:10:38.742Z,10.48
2023-01-23T16:13:07.779Z,10.93
2023-01-23T16:18:06.510Z,11.35
2023-01-23T16:20:42.399Z,11.30
2023-01-23T16:23:19.862Z,10.57
2023-01-23T16:25:48.236Z,10.07
2023-01-23T16:28:23.932Z,11.02
2023-01-23T16:30:52.539Z,11.43
2023-01-23T16:33:21.219Z,10.63
2023-01-23T16:35:50.865Z,12.25
2023-01-23T16:38:28.786Z,11.68
2023-01-23T16:40:59.419Z,13.52
2023-01-23T16:43:26.976Z,11.18
2023-01-23T16:45:56.573Z,11.65
2023-01-23T16:48:27.443Z,12.18
2023-01-23T16:51:12.862Z,12.38
2023-01-23T16:53:50.508Z,12.32
2023-01-23T16:56:39.395Z,12.52
2023-01-23T16:59:15.206Z,12.07
2023-01-23T17:01:46.118Z,12.00
2023-01-23T17:04:21.393Z,12.25
2023-01-23T17:06:49.749Z,12.60
2023-01-23T17:09:17.645Z,12.57
2023-01-23T17:11:51.393Z,14.68
2023-01-23T17:14:27.045Z,14.85
2023-01-23T17:17:03.037Z,11.75
2023-01-23T17:19:36.565Z,15.30
2023-01-23T17:22:06.271Z,14.45
2023-01-23T17:24:33.522Z,14.18
2023-01-23T17:27:00.802Z,12.85
2023-01-23T17:29:27.975Z,13.25
2023-01-23T17:31:55.469Z,14.38
2023-01-23T17:34:26.164Z,13.48
2023-01-23T17:36:55.791Z,13.88
2023-01-23T17:39:23.399Z,13.70
2023-01-23T17:41:51.344Z,13.88
2023-01-23T17:44:18.773Z,13.40
2023-01-23T17:46:47.455Z,14.65
2023-01-23T17:49:30.295Z,13.45
2023-01-23T17:52:00.687Z,13.15
2023-01-23T17:54:28.556Z,13.40
2023-01-23T17:56:55.726Z,14.07
2023-01-23T17:59:22.985Z,15.13
2023-01-23T18:01:50.695Z,16.67
2023-01-23T18:04:22.253Z,15.30
2023-01-23T18:06:50.601Z,15.50
2023-01-23T18:09:18.972Z,15.85
2023-01-23T18:11:52.220Z,16.65
2023-01-23T18:14:39.948Z,18.05
2023-01-23T18:17:46.523Z,17.23
2023-01-23T18:20:23.082Z,17.17
2023-01-23T18:22:51.307Z,17.52
2023-01-23T18:25:21.626Z,16.25
2023-01-23T18:27:55.436Z,21.73
2023-01-23T18:30:47.047Z,19.42
2023-01-23T18:33:51.500Z,29.17
2023-01-23T18:37:05.430Z,23.10
2023-01-23T18:39:57.746Z,25.67
2023-01-23T18:42:42.684Z,23.35
2023-01-23T18:45:23.682Z,27.00
2023-01-23T18:47:55.289Z,28.00
2023-01-23T18:50:25.185Z,23.85
2023-01-23T18:53:29.760Z,19.63
2023-01-23T18:56:47.879Z,15.98
2023-01-23T18:59:30.739Z,16.65
2023-01-23T19:02:26.645Z,15.38
2023-01-23T19:05:23.472Z,16.85
2023-01-23T19:07:51.228Z,16.15
2023-01-23T19:10:29.207Z,15.70
2023-01-23T19:13:21.375Z,16.88
2023-01-23T19:16:10.930Z,16.33
2023-01-23T19:18:40.946Z,16.00
2023-01-23T19:21:26.494Z,16.70
2023-01-23T19:24:06.801Z,16.98
2023-01-23T19:26:44.592Z,18.85
2023-01-23T19:29:22.962Z,19.80
2023-01-23T19:32:04.035Z,20.05
2023-01-23T19:34:33.197Z,17.67
2023-01-23T19:37:00.545Z,19.98
2023-01-23T19:39:27.756Z,19.77
2023-01-23T19:41:54.909Z,19.02
2023-01-23T19:44:24.361Z,19.42
2023-01-23T19:46:52.559Z,18.63
2023-01-23T19:49:20.262Z,19.98
2023-01-23T19:51:47.968Z,17.75
2023-01-23T19:54:15.841Z,20.13
2023-01-23T19:56:44.310Z,17.35
2023-01-23T19:59:11.672Z,17.60
2023-01-23T20:01:49.948Z,18.80
2023-01-23T20:04:22.408Z,18.85
2023-01-23T20:06:51.865Z,18.95
2023-01-23T20:09:19.918Z,19.33
2023-01-23T20:11:48.007Z,19.10
2023-01-23T20:14:15.730Z,21.27
2023-01-23T20:16:43.367Z,20.10
2023-01-23T20:19:16.390Z,19.38
2023-01-23T20:21:44.100Z,19.02
2023-01-23T20:24:12.087Z,21.08
2023-01-23T20:26:40.796Z,19.02
2023-01-23T20:29:10.386Z,19.30
2023-01-23T20:31:37.990Z,18.15
2023-01-23T20:34:05.454Z,21.40
2023-01-23T20:36:32.892Z,19.00
2023-01-23T20:39:00.176Z,20.25
2023-01-23T20:41:27.335Z,21.75
2023-01-23T20:43:54.599Z,24.65
2023-01-23T20:46:21.906Z,19.52
2023-01-23T20:48:49.130Z,21.75
2023-01-23T20:51:18.668Z,20.10
2023-01-23T20:53:46.314Z,19.92
2023-01-23T20:56:27.217Z,20.45
2023-01-23T20:59:15.406Z,18.88
2023-01-23T21:02:02.493Z,21.17
2023-01-23T21:04:34.045Z,19.35
2023-01-23T21:07:01.446Z,18.45
2023-01-23T21:09:29.079Z,20.67
2023-01-23T21:11:56.942Z,20.52
2023-01-23T21:14:24.604Z,20.10
2023-01-23T21:16:52.033Z,21.63
2023-01-23T21:19:19.674Z,23.17
2023-01-23T21:21:47.481Z,20.55
2023-01-23T21:24:14.879Z,23.65
2023-01-23T21:26:42.540Z,20.73
2023-01-23T21:29:10.256Z,22.48
2023-01-23T21:31:40.292Z,17.95
2023-01-23T21:34:14.067Z,16.75
2023-01-23T21:36:43.037Z,18.42
2023-01-23T21:39:14.587Z,16.42
2023-01-23T21:41:42.657Z,19.05
2023-01-23T21:44:13.445Z,19.75
2023-01-23T21:46:41.265Z,20.15
2023-01-23T21:49:08.890Z,20.90
2023-01-23T21:51:37.059Z,16.90
2023-01-23T21:54:04.442Z,19.27
2023-01-23T21:56:31.593Z,16.98
2023-01-23T21:58:58.996Z,17.95
2023-01-23T22:01:33.078Z,12.73
2023-01-23T22:04:10.425Z,15.88
2023-01-23T22:06:41.425Z,20.02
2023-01-23T22:09:10.877Z,15.93
2023-01-23T22:11:38.549Z,15.63
2023-01-23T22:14:05.856Z,16.17
2023-01-23T22:16:47.352Z,16.55
2023-01-23T22:19:19.376Z,16.20
2023-01-23T22:21:46.955Z,15.20
2023-01-23T22:24:15.210Z,17.25
2023-01-23T22:26:43.333Z,17.00
2023-01-23T22:29:13.732Z,16.63
2023-01-23T22:31:41.480Z,17.40
2023-01-23T22:34:09.299Z,17.13
2023-01-23T22:36:36.559Z,18.92
2023-01-23T22:39:04.308Z,15.77
2023-01-23T22:41:32.137Z,15.60
2023-01-23T22:43:59.499Z,16.98
2023-01-23T22:46:28.542Z,15.63
2023-01-23T22:48:55.786Z,14.75
2023-01-23T22:51:27.479Z,14.57
2023-01-23T22:53:57.312Z,15.38
2023-01-23T22:56:27.143Z,15.77
2023-01-23T22:58:56.863Z,15.13
2023-01-23T23:01:27.122Z,13.95
2023-01-23T23:03:58.358Z,13.77
2023-01-23T23:06:26.459Z,14.63
2023-01-23T23:08:53.992Z,16.23
2023-01-23T23:11:26.052Z,16.00
2023-01-23T23:13:54.325Z,14.15
2023-01-23T23:16:31.484Z,13.70
2023-01-23T23:19:03.401Z,13.48
2023-01-23T23:21:36.035Z,14.70
2023-01-23T23:24:07.366Z,12.77
2023-01-23T23:26:35.040Z,13.45
2023-01-23T23:29:03.093Z,13.98
2023-01-23T23:31:30.614Z,13.55
2023-01-23T23:33:58.185Z,12.93
2023-01-23T23:36:25.932Z,13.10
2023-01-23T23:38:53.384Z,14.20
2023-01-23T23:41:20.675Z,13.13
2023-01-23T23:43:47.825Z,13.55
2023-01-23T23:46:16.094Z,14.98
2023-01-23T23:48:46.036Z,12.75
2023-01-23T23:51:16.683Z,12.15
2023-01-23T23:53:44.376Z,13.50
2023-01-23T23:56:26.758Z,13.38
2023-01-23T23:58:56.234Z,12.57
